Time;durP1;ratioP1;P1;durP2;ratioP2;P2;SDS_P1;SDS_P2;PMS_P1;PMS_P2;Temp;Humidity;BMP_temperature;BMP_pressure;BME280_temperature;BME280_humidity;BME280_pressure;Samples;Min_cycle;Max_cycle;Signal;HPM_P1;HPM_P2
2023/06/24 00:01:31;;;;;;;26.65;15.07;;;;;;;;;;5045354;28;20025;-79
2023/06/24 00:04:07;;;;;;;26.35;13.07;;;;;;;;;;5045423;28;20036;-79
2023/06/24 00:06:36;;;;;;;26.77;14.85;;;;;;;;;;5044631;28;20037;-78
2023/06/24 00:09:03;;;;;;;29.17;14.77;;;;;;;;;;5029851;28;20033;-79
2023/06/24 00:11:29;;;;;;;27.73;15.15;;;;;;;;;;5047484;28;20032;-78
2023/06/24 00:13:55;;;;;;;28.40;15.57;;;;;;;;;;5045612;28;20042;-79
2023/06/24 00:16:26;;;;;;;30.35;14.57;;;;;;;;;;5029492;28;20026;-79
2023/06/24 00:19:00;;;;;;;39.35;16.15;;;;;;;;;;5050630;28;20033;-79
2023/06/24 00:21:30;;;;;;;23.40;14.15;;;;;;;;;;5013750;28;20042;-80
2023/06/24 00:23:56;;;;;;;24.38;13.55;;;;;;;;;;5049059;28;20069;-79
2023/06/24 00:26:22;;;;;;;28.85;14.40;;;;;;;;;;5049619;28;20040;-78
2023/06/24 00:28:48;;;;;;;22.48;12.73;;;;;;;;;;5049037;28;20025;-79
2023/06/24 00:31:15;;;;;;;25.92;13.15;;;;;;;;;;5033603;28;20032;-80
2023/06/24 00:33:41;;;;;;;29.85;13.07;;;;;;;;;;5030779;28;20026;-79
2023/06/24 00:36:11;;;;;;;27.13;13.70;;;;;;;;;;5048603;28;20029;-79
2023/06/24 00:38:37;;;;;;;26.52;13.02;;;;;;;;;;5049899;28;20040;-80
2023/06/24 00:41:03;;;;;;;29.75;12.75;;;;;;;;;;5052024;28;20033;-79
2023/06/24 00:43:30;;;;;;;25.00;12.68;;;;;;;;;;5034897;28;20072;-79
2023/06/24 00:45:56;;;;;;;29.60;12.52;;;;;;;;;;5032949;28;20033;-80
2023/06/24 00:48:26;;;;;;;28.70;11.93;;;;;;;;;;5050172;28;20026;-78
2023/06/24 00:50:51;;;;;;;28.50;12.75;;;;;;;;;;5050662;28;20060;-79
2023/06/24 00:53:18;;;;;;;26.13;12.90;;;;;;;;;;5018624;28;20029;-78
2023/06/24 00:55:47;;;;;;;24.13;12.95;;;;;;;;;;5050492;28;20036;-78
2023/06/24 00:58:16;;;;;;;26.60;11.45;;;;;;;;;;5034808;28;20064;-78
2023/06/24 01:00:42;;;;;;;25.73;11.80;;;;;;;;;;5050480;28;20041;-78
2023/06/24 01:03:10;;;;;;;17.90;11.52;;;;;;;;;;5050807;28;20089;-79
2023/06/24 01:05:37;;;;;;;23.45;11.82;;;;;;;;;;5051252;28;20030;-78
2023/06/24 01:08:03;;;;;;;27.83;11.88;;;;;;;;;;5052455;28;20033;-79
2023/06/24 01:10:28;;;;;;;15.65;9.93;;;;;;;;;;5052891;28;20064;-80
2023/06/24 01:12:54;;;;;;;23.95;11.52;;;;;;;;;;5034520;28;20037;-79
2023/06/24 01:15:21;;;;;;;22.55;11.77;;;;;;;;;;5050319;28;20068;-78
2023/06/24 01:17:47;;;;;;;22.77;12.15;;;;;;;;;;5064177;28;20033;-78
2023/06/24 01:20:32;;;;;;;22.40;11.13;;;;;;;;;;5034963;28;20060;-78
2023/06/24 01:23:03;;;;;;;27.42;11.52;;;;;;;;;;5052369;28;20033;-80
2023/06/24 01:25:37;;;;;;;20.50;10.80;;;;;;;;;;5051215;28;20038;-79
2023/06/24 01:28:15;;;;;;;20.75;9.98;;;;;;;;;;5048921;28;20033;-79
2023/06/24 01:30:57;;;;;;;15.35;10.32;;;;;;;;;;5044176;28;20034;-79
2023/06/24 01:33:26;;;;;;;17.20;10.73;;;;;;;;;;5042566;28;20033;-79
2023/06/24 01:35:52;;;;;;;21.45;10.88;;;;;;;;;;5043121;28;20033;-78
2023/06/24 01:38:24;;;;;;;17.63;10.73;;;;;;;;;;5043195;28;20049;-81
2023/06/24 01:40:51;;;;;;;23.35;10.52;;;;;;;;;;5052001;28;20064;-79
2023/06/24 01:43:17;;;;;;;17.05;10.35;;;;;;;;;;5065378;28;20029;-79
2023/06/24 01:45:46;;;;;;;24.50;11.05;;;;;;;;;;5045024;28;20127;-79
2023/06/24 01:48:14;;;;;;;20.23;10.57;;;;;;;;;;5064372;28;20029;-79
2023/06/24 01:50:43;;;;;;;26.05;10.32;;;;;;;;;;5062885;28;20053;-78
2023/06/24 01:53:10;;;;;;;23.67;10.52;;;;;;;;;;5057761;28;20029;-80
2023/06/24 01:55:38;;;;;;;22.88;10.50;;;;;;;;;;5059428;28;20094;-79
2023/06/24 01:58:05;;;;;;;25.02;10.68;;;;;;;;;;5060189;28;20033;-79
2023/06/24 02:00:31;;;;;;;22.52;11.05;;;;;;;;;;5040583;28;20056;-79
2023/06/24 02:02:57;;;;;;;16.98;9.70;;;;;;;;;;5040308;28;20029;-80
2023/06/24 02:05:24;;;;;;;17.67;10.63;;;;;;;;;;5056364;28;20377;-80
2023/06/24 02:07:52;;;;;;;15.38;9.73;;;;;;;;;;5040548;28;20037;-80
2023/06/24 02:10:18;;;;;;;23.10;10.32;;;;;;;;;;5055638;28;20035;-79
2023/06/24 02:12:46;;;;;;;21.00;10.45;;;;;;;;;;5038260;28;20032;-80
2023/06/24 02:15:11;;;;;;;17.20;9.88;;;;;;;;;;5037838;28;20170;-80
2023/06/24 02:17:39;;;;;;;19.50;9.77;;;;;;;;;;5037227;28;20029;-78
2023/06/24 02:20:06;;;;;;;18.02;10.60;;;;;;;;;;5053627;28;20032;-77
2023/06/24 02:22:32;;;;;;;19.73;9.73;;;;;;;;;;5036896;28;20050;-79
2023/06/24 02:24:57;;;;;;;20.27;9.63;;;;;;;;;;5037297;28;20025;-79
2023/06/24 02:27:23;;;;;;;20.05;9.15;;;;;;;;;;5054844;28;20021;-79
2023/06/24 02:29:49;;;;;;;21.77;9.98;;;;;;;;;;5036924;28;20029;-79
2023/06/24 02:32:15;;;;;;;19.38;9.38;;;;;;;;;;5053054;28;20087;-77
2023/06/24 02:34:41;;;;;;;21.13;9.43;;;;;;;;;;5053212;28;20029;-79
2023/06/24 02:37:06;;;;;;;16.67;9.40;;;;;;;;;;5020281;28;20037;-77
2023/06/24 02:39:33;;;;;;;22.17;9.65;;;;;;;;;;5053121;28;20033;-79
2023/06/24 02:41:58;;;;;;;14.10;9.20;;;;;;;;;;5052573;28;20032;-79
2023/06/24 02:44:24;;;;;;;15.65;8.60;;;;;;;;;;5054324;28;20055;-79
2023/06/24 02:46:53;;;;;;;21.75;9.25;;;;;;;;;;5036703;28;20025;-79
2023/06/24 02:49:19;;;;;;;16.05;8.60;;;;;;;;;;5036329;28;20025;-79
2023/06/24 02:51:45;;;;;;;19.40;9.20;;;;;;;;;;5035940;28;20028;-79
2023/06/24 02:54:12;;;;;;;21.85;10.50;;;;;;;;;;5036270;28;20024;-78
2023/06/24 02:56:57;;;;;;;15.68;9.23;;;;;;;;;;5052805;28;20033;-79
2023/06/24 02:59:32;;;;;;;13.82;8.77;;;;;;;;;;5053029;28;20511;-79
2023/06/24 03:02:00;;;;;;;17.60;8.50;;;;;;;;;;5035578;28;20448;-80
2023/06/24 03:04:26;;;;;;;20.33;9.45;;;;;;;;;;5051413;28;20711;-79
2023/06/24 03:06:52;;;;;;;16.20;8.77;;;;;;;;;;5053652;28;20033;-78
2023/06/24 03:09:18;;;;;;;16.88;8.68;;;;;;;;;;5036015;28;20025;-77
2023/06/24 03:11:45;;;;;;;21.85;10.15;;;;;;;;;;5035494;28;20057;-80
2023/06/24 03:14:16;;;;;;;13.32;9.13;;;;;;;;;;5035509;28;20033;-78
2023/06/24 03:16:43;;;;;;;17.23;8.70;;;;;;;;;;5037421;28;20025;-78
2023/06/24 03:19:14;;;;;;;16.60;9.23;;;;;;;;;;5032542;28;20041;-78
2023/06/24 03:21:41;;;;;;;20.55;8.88;;;;;;;;;;4999682;28;20033;-78
2023/06/24 03:24:10;;;;;;;14.48;8.85;;;;;;;;;;5016681;28;20025;-78
2023/06/24 03:26:38;;;;;;;15.18;8.52;;;;;;;;;;5016253;28;20511;-79
2023/06/24 03:29:07;;;;;;;20.85;9.00;;;;;;;;;;5016105;28;20033;-79
2023/06/24 03:31:32;;;;;;;15.98;9.63;;;;;;;;;;5015601;28;20072;-80
2023/06/24 03:33:59;;;;;;;18.92;9.15;;;;;;;;;;5032541;28;20029;-78
2023/06/24 03:36:26;;;;;;;15.48;7.90;;;;;;;;;;5032760;28;20057;-79
2023/06/24 03:38:51;;;;;;;13.48;8.05;;;;;;;;;;5000282;28;20370;-79
2023/06/24 03:41:17;;;;;;;14.98;8.43;;;;;;;;;;5037727;28;20052;-79
2023/06/24 03:43:44;;;;;;;15.88;7.45;;;;;;;;;;5036761;28;20068;-83
2023/06/24 03:46:11;;;;;;;13.32;7.93;;;;;;;;;;5040563;28;20025;-79
2023/06/24 03:48:36;;;;;;;11.93;7.63;;;;;;;;;;5054824;28;20040;-79
2023/06/24 03:51:02;;;;;;;13.88;7.47;;;;;;;;;;5019316;28;20383;-80
2023/06/24 03:53:29;;;;;;;18.10;8.88;;;;;;;;;;5036104;28;20040;-79
2023/06/24 03:55:55;;;;;;;13.02;7.72;;;;;;;;;;5019739;28;20403;-79
2023/06/24 03:58:20;;;;;;;16.90;7.45;;;;;;;;;;5053039;28;20412;-79
2023/06/24 04:00:49;;;;;;;14.50;7.30;;;;;;;;;;5037297;28;20547;-78
2023/06/24 04:03:17;;;;;;;13.48;7.38;;;;;;;;;;5043681;28;20051;-78
2023/06/24 04:05:43;;;;;;;11.40;7.15;;;;;;;;;;5044384;28;20082;-79
2023/06/24 04:08:08;;;;;;;11.30;7.70;;;;;;;;;;5048109;28;20029;-79
2023/06/24 04:10:34;;;;;;;13.23;7.80;;;;;;;;;;5048728;28;20495;-78
2023/06/24 04:13:00;;;;;;;12.70;7.35;;;;;;;;;;5072070;28;20017;-78
2023/06/24 04:15:25;;;;;;;11.23;6.60;;;;;;;;;;5071966;28;20022;-80
2023/06/24 04:17:52;;;;;;;14.15;6.97;;;;;;;;;;5054504;28;20077;-79
2023/06/24 04:20:19;;;;;;;15.32;7.63;;;;;;;;;;5054738;28;20033;-79
2023/06/24 04:22:44;;;;;;;15.07;6.90;;;;;;;;;;5049061;28;20036;-78
2023/06/24 04:25:10;;;;;;;16.10;7.18;;;;;;;;;;5071549;28;20071;-80
2023/06/24 04:27:36;;;;;;;13.50;7.07;;;;;;;;;;5074829;28;20044;-78
2023/06/24 04:30:03;;;;;;;10.10;6.22;;;;;;;;;;5075652;28;20016;-79
2023/06/24 04:32:30;;;;;;;13.07;7.63;;;;;;;;;;5057409;28;20045;-79
2023/06/24 04:34:55;;;;;;;14.13;7.03;;;;;;;;;;5054178;28;20261;-78
2023/06/24 04:37:22;;;;;;;18.83;7.35;;;;;;;;;;5038188;28;20040;-77
2023/06/24 04:39:48;;;;;;;18.02;7.05;;;;;;;;;;5040119;28;20029;-78
2023/06/24 04:42:14;;;;;;;13.82;7.55;;;;;;;;;;5054389;28;20151;-78
2023/06/24 04:44:40;;;;;;;12.43;7.05;;;;;;;;;;5052270;28;20028;-78
2023/06/24 04:47:06;;;;;;;11.95;7.32;;;;;;;;;;5052130;28;20040;-77
2023/06/24 04:49:31;;;;;;;11.07;6.53;;;;;;;;;;5053121;28;20025;-79
2023/06/24 04:51:59;;;;;;;14.50;6.88;;;;;;;;;;5051541;28;20025;-77
2023/06/24 04:54:25;;;;;;;16.85;7.18;;;;;;;;;;5053036;28;20029;-77
2023/06/24 04:56:52;;;;;;;11.50;6.32;;;;;;;;;;5052099;28;20021;-78
2023/06/24 04:59:18;;;;;;;17.13;7.10;;;;;;;;;;5034702;28;20032;-78
2023/06/24 05:01:43;;;;;;;12.05;7.15;;;;;;;;;;5050840;28;20029;-80
2023/06/24 05:04:09;;;;;;;11.57;7.10;;;;;;;;;;5052925;28;20435;-82
2023/06/24 05:06:34;;;;;;;11.82;6.72;;;;;;;;;;5053442;28;20060;-78
2023/06/24 05:09:00;;;;;;;12.80;6.70;;;;;;;;;;5035777;28;20025;-77
2023/06/24 05:11:26;;;;;;;13.88;7.30;;;;;;;;;;5050849;28;20403;-78
2023/06/24 05:13:51;;;;;;;12.70;6.72;;;;;;;;;;5035363;28;20293;-79
2023/06/24 05:16:17;;;;;;;10.88;6.80;;;;;;;;;;5072056;28;20036;-78
2023/06/24 05:18:44;;;;;;;16.20;8.30;;;;;;;;;;5055803;28;20472;-77
2023/06/24 05:21:09;;;;;;;12.73;7.03;;;;;;;;;;5050383;28;20029;-78
2023/06/24 05:23:35;;;;;;;13.52;7.40;;;;;;;;;;5051071;28;20060;-79
2023/06/24 05:26:00;;;;;;;13.48;7.05;;;;;;;;;;5034238;28;20132;-78
2023/06/24 05:28:26;;;;;;;14.88;7.38;;;;;;;;;;5069518;28;20098;-79
2023/06/24 05:30:51;;;;;;;15.27;8.82;;;;;;;;;;5037780;28;20476;-78
2023/06/24 05:33:17;;;;;;;16.65;8.05;;;;;;;;;;5054865;28;20545;-78
2023/06/24 05:35:43;;;;;;;13.98;7.35;;;;;;;;;;5055893;28;20029;-79
2023/06/24 05:38:08;;;;;;;13.48;7.07;;;;;;;;;;5054642;28;20511;-79
2023/06/24 05:40:34;;;;;;;13.45;7.07;;;;;;;;;;5055255;28;20127;-79
2023/06/24 05:43:00;;;;;;;9.93;7.22;;;;;;;;;;5034428;28;20037;-78
2023/06/24 05:45:26;;;;;;;12.13;6.60;;;;;;;;;;5050601;28;20068;-80
2023/06/24 05:47:52;;;;;;;15.30;7.03;;;;;;;;;;5050761;28;20068;-81
2023/06/24 05:50:17;;;;;;;12.43;6.53;;;;;;;;;;5034712;28;20548;-78
2023/06/24 05:52:43;;;;;;;13.60;7.05;;;;;;;;;;5033793;28;20416;-79
2023/06/24 05:55:09;;;;;;;14.52;7.13;;;;;;;;;;5033838;28;20400;-80
2023/06/24 05:57:34;;;;;;;14.15;7.10;;;;;;;;;;5033491;28;20059;-79
2023/06/24 06:00:00;;;;;;;13.40;6.65;;;;;;;;;;5033804;28;20392;-79
2023/06/24 06:02:26;;;;;;;12.63;6.35;;;;;;;;;;5033415;28;20041;-81
2023/06/24 06:04:51;;;;;;;12.10;6.82;;;;;;;;;;5033876;28;20683;-80
2023/06/24 06:07:16;;;;;;;10.90;6.78;;;;;;;;;;5049755;28;20025;-79
2023/06/24 06:09:42;;;;;;;13.48;6.00;;;;;;;;;;5033420;28;20365;-79
2023/06/24 06:12:08;;;;;;;12.85;6.53;;;;;;;;;;5032972;28;20079;-80
2023/06/24 06:14:33;;;;;;;11.05;6.68;;;;;;;;;;5016832;28;20025;-80
2023/06/24 06:16:59;;;;;;;11.27;6.28;;;;;;;;;;5034326;28;20079;-80
2023/06/24 06:19:24;;;;;;;13.18;7.20;;;;;;;;;;5034246;28;20344;-80
2023/06/24 06:21:51;;;;;;;14.77;6.78;;;;;;;;;;5049258;28;20060;-78
2023/06/24 06:24:17;;;;;;;16.10;7.43;;;;;;;;;;5016714;28;20021;-80
2023/06/24 06:26:43;;;;;;;13.40;7.05;;;;;;;;;;5032829;28;20084;-81
2023/06/24 06:29:09;;;;;;;13.82;7.18;;;;;;;;;;5032699;28;20393;-79
2023/06/24 06:31:34;;;;;;;14.15;6.15;;;;;;;;;;5016152;28;20033;-79
2023/06/24 06:34:01;;;;;;;17.33;7.05;;;;;;;;;;5033996;28;20503;-79
2023/06/24 06:36:27;;;;;;;15.48;7.55;;;;;;;;;;5032828;28;20135;-79
2023/06/24 06:38:52;;;;;;;15.55;7.95;;;;;;;;;;5032613;28;20089;-80
2023/06/24 06:41:24;;;;;;;11.35;6.93;;;;;;;;;;5034371;28;20025;-80
2023/06/24 06:43:52;;;;;;;10.93;6.50;;;;;;;;;;5052569;28;20036;-80
2023/06/24 06:46:18;;;;;;;10.27;6.50;;;;;;;;;;5052460;28;20029;-79
2023/06/24 06:48:44;;;;;;;11.35;6.70;;;;;;;;;;5052494;28;20431;-78
2023/06/24 06:51:09;;;;;;;12.38;7.28;;;;;;;;;;5053318;28;20075;-79
2023/06/24 06:53:35;;;;;;;11.48;6.53;;;;;;;;;;5053795;28;20480;-79
2023/06/24 06:56:00;;;;;;;10.10;6.72;;;;;;;;;;5052375;28;20112;-80
2023/06/24 06:58:26;;;;;;;9.68;6.45;;;;;;;;;;5053599;28;20036;-80
2023/06/24 07:00:52;;;;;;;10.02;6.60;;;;;;;;;;5051679;28;20074;-79
2023/06/24 07:03:21;;;;;;;11.00;6.63;;;;;;;;;;5051890;28;20480;-77
2023/06/24 07:05:49;;;;;;;12.18;6.68;;;;;;;;;;5052162;28;20072;-79
2023/06/24 07:08:15;;;;;;;10.68;6.50;;;;;;;;;;5019085;28;20449;-77
2023/06/24 07:10:41;;;;;;;14.60;7.97;;;;;;;;;;5051580;28;20492;-77
2023/06/24 07:13:06;;;;;;;12.32;6.53;;;;;;;;;;5031888;28;20026;-78
2023/06/24 07:15:32;;;;;;;11.00;6.88;;;;;;;;;;5015336;28;20664;-78
2023/06/24 07:17:58;;;;;;;12.10;7.30;;;;;;;;;;5015041;28;20083;-77
2023/06/24 07:20:24;;;;;;;10.50;5.97;;;;;;;;;;4998930;28;20404;-78
2023/06/24 07:22:49;;;;;;;13.60;6.95;;;;;;;;;;5032469;28;20076;-78
2023/06/24 07:25:15;;;;;;;13.20;7.18;;;;;;;;;;5032930;28;20065;-77
2023/06/24 07:27:41;;;;;;;9.25;5.68;;;;;;;;;;5015463;28;20527;-78
2023/06/24 07:30:06;;;;;;;11.55;7.07;;;;;;;;;;5031495;28;20036;-78
2023/06/24 07:32:32;;;;;;;12.52;6.47;;;;;;;;;;5031439;28;20579;-77
2023/06/24 07:34:58;;;;;;;13.43;6.80;;;;;;;;;;5031445;28;20046;-78
2023/06/24 07:37:23;;;;;;;9.52;6.18;;;;;;;;;;5031667;28;20445;-77
2023/06/24 07:39:49;;;;;;;10.13;6.03;;;;;;;;;;5031658;28;20515;-78
2023/06/24 07:42:18;;;;;;;11.35;6.43;;;;;;;;;;5034460;28;20574;-78
2023/06/24 07:44:48;;;;;;;11.45;6.47;;;;;;;;;;5051391;28;20037;-77
2023/06/24 07:47:13;;;;;;;9.35;6.13;;;;;;;;;;5051228;28;20506;-78
2023/06/24 07:49:39;;;;;;;16.50;6.18;;;;;;;;;;5051001;28;20032;-78
2023/06/24 07:52:06;;;;;;;13.75;6.95;;;;;;;;;;5033497;28;20025;-77
2023/06/24 07:54:31;;;;;;;11.45;6.45;;;;;;;;;;5051154;28;20503;-76
2023/06/24 07:56:57;;;;;;;9.23;5.15;;;;;;;;;;5034168;28;20033;-78
2023/06/24 07:59:23;;;;;;;10.95;6.10;;;;;;;;;;5051127;28;20053;-79
2023/06/24 08:01:48;;;;;;;10.15;6.10;;;;;;;;;;5050473;28;20029;-79
2023/06/24 08:04:15;;;;;;;10.30;6.43;;;;;;;;;;5051129;28;20025;-78
2023/06/24 08:06:40;;;;;;;8.68;5.53;;;;;;;;;;5017686;28;20040;-79
2023/06/24 08:09:06;;;;;;;10.13;5.30;;;;;;;;;;5034221;28;20033;-79
2023/06/24 08:11:32;;;;;;;12.45;6.72;;;;;;;;;;5050444;28;20033;-79
2023/06/24 08:13:57;;;;;;;8.40;5.25;;;;;;;;;;5031826;28;20405;-80
2023/06/24 08:16:23;;;;;;;11.82;6.15;;;;;;;;;;5036044;28;20481;-77
2023/06/24 08:18:48;;;;;;;7.82;5.43;;;;;;;;;;5018042;28;20033;-86
2023/06/24 08:21:14;;;;;;;7.78;5.10;;;;;;;;;;5017991;28;20433;-87
2023/06/24 08:23:40;;;;;;;9.55;5.18;;;;;;;;;;5018542;28;20040;-87
2023/06/24 08:26:07;;;;;;;10.60;5.32;;;;;;;;;;5034095;28;20032;-86
2023/06/24 08:28:33;;;;;;;8.85;4.90;;;;;;;;;;5034416;28;20032;-85
2023/06/24 08:30:59;;;;;;;7.03;4.90;;;;;;;;;;5050515;28;20116;-86
2023/06/24 08:33:25;;;;;;;10.15;4.88;;;;;;;;;;5034074;28;20191;-82
2023/06/24 08:35:53;;;;;;;8.85;5.15;;;;;;;;;;5017923;28;20037;-90
2023/06/24 08:38:19;;;;;;;;;;;;;;;;;;5038456;28;20094;-91
2023/06/24 08:40:51;;;;;;;7.82;4.90;;;;;;;;;;5020829;28;19954;-91
2023/06/24 08:43:41;;;;;;;9.15;5.22;;;;;;;;;;5018312;28;20508;-92
2023/06/24 08:46:16;;;;;;;8.63;4.63;;;;;;;;;;5017487;28;20036;-93
2023/06/24 08:48:45;;;;;;;6.53;4.03;;;;;;;;;;5000767;28;20120;-92
2023/06/24 08:51:11;;;;;;;9.02;4.70;;;;;;;;;;5015016;28;20105;-88
2023/06/24 08:53:38;;;;;;;8.18;4.53;;;;;;;;;;5014272;28;20396;-87
2023/06/24 08:56:05;;;;;;;9.70;4.60;;;;;;;;;;5014999;28;20040;-92
2023/06/24 08:58:34;;;;;;;8.77;4.53;;;;;;;;;;5000426;28;20041;-90
2023/06/24 09:01:00;;;;;;;6.47;4.55;;;;;;;;;;5016058;28;20127;-86
2023/06/24 09:03:26;;;;;;;41.28;31.63;;;;;;;;;;5000282;28;20087;-89
2023/06/24 09:05:51;;;;;;;13.30;7.00;;;;;;;;;;5034358;28;20033;-89
2023/06/24 09:08:23;;;;;;;13.15;6.30;;;;;;;;;;5035571;28;20033;-88
2023/06/24 09:10:55;;;;;;;20.70;12.38;;;;;;;;;;5001964;28;20512;-88
2023/06/24 09:13:22;;;;;;;22.27;12.95;;;;;;;;;;5034586;28;20033;-88
2023/06/24 09:15:48;;;;;;;19.17;11.43;;;;;;;;;;5018260;28;20041;-88
2023/06/24 09:18:17;;;;;;;28.43;17.80;;;;;;;;;;5034572;28;20038;-88
2023/06/24 09:20:45;;;;;;;8.68;4.90;;;;;;;;;;5017481;28;20033;-88
2023/06/24 09:23:11;;;;;;;12.80;8.27;;;;;;;;;;5018211;28;20033;-87
2023/06/24 09:25:40;;;;;;;6.88;4.97;;;;;;;;;;5018344;28;20034;-87
2023/06/24 09:28:05;;;;;;;7.63;5.10;;;;;;;;;;5018021;28;20067;-87
2023/06/24 09:30:31;;;;;;;10.95;7.70;;;;;;;;;;5034321;28;20033;-88
2023/06/24 09:32:57;;;;;;;8.35;4.97;;;;;;;;;;5017596;28;20037;-87
2023/06/24 09:35:23;;;;;;;11.50;5.53;;;;;;;;;;5018086;28;20075;-87
2023/06/24 09:37:52;;;;;;;6.78;4.40;;;;;;;;;;5018037;28;20084;-89
2023/06/24 09:40:22;;;;;;;11.85;4.28;;;;;;;;;;5034565;28;20089;-87
2023/06/24 09:42:58;;;;;;;9.75;3.85;;;;;;;;;;5005776;28;20063;-88
2023/06/24 09:45:27;;;;;;;7.38;4.03;;;;;;;;;;5021532;28;20025;-87
2023/06/24 09:47:53;;;;;;;9.85;4.13;;;;;;;;;;5054469;28;20025;-87
2023/06/24 09:50:19;;;;;;;7.15;4.10;;;;;;;;;;5022719;28;20061;-87
2023/06/24 09:52:45;;;;;;;6.05;4.20;;;;;;;;;;5054885;28;20021;-88
2023/06/24 09:55:14;;;;;;;7.88;4.38;;;;;;;;;;5039529;28;20055;-87
2023/06/24 09:57:43;;;;;;;6.10;4.47;;;;;;;;;;5043529;28;20036;-87
2023/06/24 10:00:10;;;;;;;6.97;4.20;;;;;;;;;;5032789;28;20058;-86
2023/06/24 10:02:36;;;;;;;252.18;206.48;;;;;;;;;;5048202;28;20053;-89
2023/06/24 10:05:01;;;;;;;22.95;13.65;;;;;;;;;;5059291;28;20044;-89
2023/06/24 10:07:28;;;;;;;10.95;6.03;;;;;;;;;;5068874;28;20072;-89
2023/06/24 10:09:54;;;;;;;11.52;6.53;;;;;;;;;;5073600;28;20052;-88
2023/06/24 10:12:26;;;;;;;13.00;9.18;;;;;;;;;;5037561;28;20033;-89
2023/06/24 10:14:52;;;;;;;11.82;6.57;;;;;;;;;;5047194;28;20029;-89
2023/06/24 10:17:20;;;;;;;11.98;7.93;;;;;;;;;;5026847;28;20120;-89
2023/06/24 10:19:45;;;;;;;15.65;10.50;;;;;;;;;;5022394;28;20035;-85
2023/06/24 10:22:11;;;;;;;5.35;3.55;;;;;;;;;;5050068;28;20033;-86
2023/06/24 10:24:42;;;;;;;9.50;4.40;;;;;;;;;;5017752;28;20033;-86
2023/06/24 10:27:15;;;;;;;10.75;4.25;;;;;;;;;;5034575;28;20076;-85
2023/06/24 10:29:44;;;;;;;7.05;3.70;;;;;;;;;;5037404;28;20025;-85
2023/06/24 10:32:10;;;;;;;8.20;4.15;;;;;;;;;;5020552;28;20041;-86
2023/06/24 10:34:39;;;;;;;7.40;4.00;;;;;;;;;;5053957;28;20102;-86
2023/06/24 10:37:05;;;;;;;7.38;3.60;;;;;;;;;;5021743;28;20025;-86
2023/06/24 10:39:38;;;;;;;8.48;3.60;;;;;;;;;;5021765;28;20519;-83
2023/06/24 10:42:19;;;;;;;6.28;3.40;;;;;;;;;;5020798;28;20029;-85
2023/06/24 10:44:45;;;;;;;8.02;3.42;;;;;;;;;;5037921;28;20032;-85
2023/06/24 10:47:11;;;;;;;6.65;3.50;;;;;;;;;;5021947;28;20118;-87
2023/06/24 10:49:36;;;;;;;5.03;3.08;;;;;;;;;;5020389;28;20369;-89
2023/06/24 10:52:02;;;;;;;5.55;3.55;;;;;;;;;;5036560;28;20505;-87
2023/06/24 10:54:28;;;;;;;5.22;3.22;;;;;;;;;;5036816;28;20025;-86
2023/06/24 10:56:55;;;;;;;7.53;3.50;;;;;;;;;;5071178;23;20060;-88
2023/06/24 10:59:44;;;;;;;6.93;3.70;;;;;;;;;;5002463;28;20053;-87
2023/06/24 11:05:27;;;;;;;6.38;3.25;;;;;;;;;;5001847;28;20034;-85
2023/06/24 11:07:53;;;;;;;9.95;3.28;;;;;;;;;;5015128;28;20026;-88
2023/06/24 11:10:21;;;;;;;6.03;2.90;;;;;;;;;;5014933;28;20108;-86
2023/06/24 11:12:50;;;;;;;6.13;3.42;;;;;;;;;;5033430;28;20071;-85
2023/06/24 11:15:21;;;;;;;7.28;3.13;;;;;;;;;;5002969;28;20025;-86
2023/06/24 11:18:10;;;;;;;6.65;3.28;;;;;;;;;;4999471;28;20030;-87
2023/06/24 11:21:18;;;;;;;4.30;2.92;;;;;;;;;;5017289;28;20037;-85
2023/06/24 11:23:43;;;;;;;7.75;2.90;;;;;;;;;;5025158;28;20038;-87
2023/06/24 11:32:09;;;;;;;6.68;2.97;;;;;;;;;;2372734;26;20039;-86
2023/06/24 11:35:08;;;;;;;5.20;2.95;;;;;;;;;;4954720;28;20122;-89
2023/06/24 11:37:37;;;;;;;5.15;2.72;;;;;;;;;;4952328;28;20035;-87
2023/06/24 11:40:09;;;;;;;5.82;3.05;;;;;;;;;;4953130;28;20561;-90
2023/06/24 11:42:36;;;;;;;5.10;3.03;;;;;;;;;;4937582;29;20517;-88
2023/06/24 11:48:45;;;;;;;7.60;2.70;;;;;;;;;;4921006;29;20043;-87
2023/06/24 11:51:35;;;;;;;5.80;2.47;;;;;;;;;;4934524;29;20484;-87
2023/06/24 11:54:02;;;;;;;4.80;2.55;;;;;;;;;;4950270;29;20075;-86
2023/06/24 11:56:39;;;;;;;4.35;2.60;;;;;;;;;;4949511;29;20035;-87
2023/06/24 11:59:25;;;;;;;5.57;2.60;;;;;;;;;;4951200;29;20046;-86
2023/06/24 12:01:55;;;;;;;5.13;2.95;;;;;;;;;;4913677;29;20043;-85
2023/06/24 12:08:45;;;;;;;5.78;3.00;;;;;;;;;;4882005;29;20452;-88
2023/06/24 12:11:33;;;;;;;5.78;3.05;;;;;;;;;;4863715;29;20245;-89
2023/06/24 12:14:13;;;;;;;5.95;3.05;;;;;;;;;;4870356;29;20037;-88
2023/06/24 12:16:41;;;;;;;4.13;2.47;;;;;;;;;;4869619;29;20115;-89
2023/06/24 12:19:22;;;;;;;4.88;2.72;;;;;;;;;;4888800;29;20033;-88
2023/06/24 12:22:02;;;;;;;3.95;2.70;;;;;;;;;;4890368;29;20049;-89
2023/06/24 12:24:29;;;;;;;5.32;2.92;;;;;;;;;;4951293;29;20066;-88
2023/06/24 12:26:56;;;;;;;4.45;2.88;;;;;;;;;;4953678;29;20097;-89
2023/06/24 12:29:22;;;;;;;5.75;2.97;;;;;;;;;;4935895;29;20355;-89
2023/06/24 12:31:51;;;;;;;6.80;3.03;;;;;;;;;;4964854;28;20035;-88
2023/06/24 12:34:25;;;;;;;5.70;2.95;;;;;;;;;;4930466;29;20035;-89
2023/06/24 12:36:56;;;;;;;6.88;2.70;;;;;;;;;;4928612;29;20063;-89
2023/06/24 12:39:24;;;;;;;4.90;3.05;;;;;;;;;;4943285;29;20028;-89
2023/06/24 12:41:51;;;;;;;4.38;2.42;;;;;;;;;;4944039;29;20071;-90
2023/06/24 12:44:17;;;;;;;4.53;2.80;;;;;;;;;;4956961;28;20058;-88
2023/06/24 12:46:45;;;;;;;5.32;2.80;;;;;;;;;;4949411;29;20035;-88
2023/06/24 12:49:11;;;;;;;5.50;2.88;;;;;;;;;;4949542;29;20031;-88
2023/06/24 12:51:36;;;;;;;63.83;42.15;;;;;;;;;;4957226;29;20527;-85
2023/06/24 12:54:02;;;;;;;21.15;12.45;;;;;;;;;;4953390;29;20415;-83
2023/06/24 12:56:28;;;;;;;16.15;11.05;;;;;;;;;;4956423;28;20446;-81
2023/06/24 12:58:53;;;;;;;14.98;9.52;;;;;;;;;;4956547;29;20442;-82
2023/06/24 13:01:19;;;;;;;8.02;5.20;;;;;;;;;;4949613;29;20038;-84
2023/06/24 13:03:44;;;;;;;12.55;6.63;;;;;;;;;;4960651;28;20114;-83
2023/06/24 13:06:10;;;;;;;7.05;2.85;;;;;;;;;;4959151;29;20392;-82
2023/06/24 13:08:35;;;;;;;6.80;3.90;;;;;;;;;;4962174;28;20034;-88
2023/06/24 13:11:01;;;;;;;10.48;7.32;;;;;;;;;;4946669;29;20032;-88
2023/06/24 13:13:27;;;;;;;8.57;5.60;;;;;;;;;;4957952;28;20027;-88
2023/06/24 13:15:52;;;;;;;8.68;4.40;;;;;;;;;;4954272;28;20462;-88
2023/06/24 13:18:19;;;;;;;6.93;3.40;;;;;;;;;;4956575;28;20032;-89
2023/06/24 13:20:45;;;;;;;8.48;3.22;;;;;;;;;;4921762;29;20403;-88
2023/06/24 13:23:10;;;;;;;9.88;4.20;;;;;;;;;;4952361;28;20042;-89
2023/06/24 13:25:36;;;;;;;6.30;4.45;;;;;;;;;;4946254;29;20043;-89
2023/06/24 13:28:02;;;;;;;8.38;5.65;;;;;;;;;;4928725;29;20146;-90
2023/06/24 13:30:28;;;;;;;7.13;4.53;;;;;;;;;;4921855;29;20027;-89
2023/06/24 13:32:54;;;;;;;6.25;4.05;;;;;;;;;;4953074;28;20035;-87
2023/06/24 13:35:19;;;;;;;6.78;3.70;;;;;;;;;;4938071;29;20039;-87
2023/06/24 13:37:45;;;;;;;8.75;3.30;;;;;;;;;;4952821;29;20106;-88
2023/06/24 13:40:11;;;;;;;7.22;4.63;;;;;;;;;;4954879;28;20027;-88
2023/06/24 13:42:36;;;;;;;7.10;4.07;;;;;;;;;;4936972;29;20039;-84
2023/06/24 13:45:02;;;;;;;11.55;5.55;;;;;;;;;;4953496;28;20066;-85
2023/06/24 13:47:28;;;;;;;8.65;4.80;;;;;;;;;;4920646;29;20349;-86
2023/06/24 13:49:54;;;;;;;8.25;3.63;;;;;;;;;;4957193;28;20083;-85
2023/06/24 13:52:20;;;;;;;7.15;4.07;;;;;;;;;;4956378;29;20031;-87
2023/06/24 13:54:46;;;;;;;7.55;3.78;;;;;;;;;;4956299;29;20043;-86
2023/06/24 13:57:12;;;;;;;7.32;3.72;;;;;;;;;;4957779;28;20430;-87
2023/06/24 13:59:37;;;;;;;6.13;3.72;;;;;;;;;;4956463;29;20031;-89
2023/06/24 14:02:03;;;;;;;6.80;3.70;;;;;;;;;;4957012;29;20399;-87
2023/06/24 14:04:29;;;;;;;6.93;3.78;;;;;;;;;;4942180;28;20024;-87
2023/06/24 14:06:55;;;;;;;5.50;3.28;;;;;;;;;;4940100;29;20031;-88
2023/06/24 14:09:21;;;;;;;123.25;103.40;;;;;;;;;;4924831;29;20023;-87
2023/06/24 14:11:46;;;;;;;10.07;6.60;;;;;;;;;;4958399;29;20034;-90
2023/06/24 14:14:12;;;;;;;13.20;10.38;;;;;;;;;;4958873;29;20094;-87
2023/06/24 14:16:40;;;;;;;14.88;11.80;;;;;;;;;;4957047;28;20039;-88
2023/06/24 14:19:06;;;;;;;10.60;7.53;;;;;;;;;;4958330;28;20063;-87
2023/06/24 14:21:31;;;;;;;15.52;9.18;;;;;;;;;;4957764;28;20270;-85
2023/06/24 14:24:10;;;;;;;10.75;7.20;;;;;;;;;;4956874;28;20086;-88
2023/06/24 14:26:59;;;;;;;12.98;8.95;;;;;;;;;;4954505;28;20122;-88
2023/06/24 14:29:25;;;;;;;11.57;7.55;;;;;;;;;;4956222;29;20066;-88
2023/06/24 14:31:51;;;;;;;10.50;6.38;;;;;;;;;;4957151;28;20454;-86
2023/06/24 14:34:17;;;;;;;11.63;7.35;;;;;;;;;;4961417;29;20165;-88
2023/06/24 14:36:43;;;;;;;10.82;5.40;;;;;;;;;;4956463;29;20031;-87
2023/06/24 14:39:09;;;;;;;11.40;7.13;;;;;;;;;;4978566;29;20031;-89
2023/06/24 14:41:34;;;;;;;10.10;6.75;;;;;;;;;;4957579;29;20051;-87
2023/06/24 14:44:00;;;;;;;13.57;7.68;;;;;;;;;;4975496;29;20023;-86
2023/06/24 14:46:25;;;;;;;6.32;4.40;;;;;;;;;;4960204;29;20039;-86
2023/06/24 14:48:51;;;;;;;6.53;3.85;;;;;;;;;;4961209;28;20063;-88
2023/06/24 14:51:19;;;;;;;7.72;3.88;;;;;;;;;;4925457;29;20024;-89